createdAt,value
2023-03-15T06:03:25.173Z,0.50
2023-03-15T06:04:26.354Z,0.50
2023-03-15T06:05:26.225Z,0.50
2023-03-15T06:06:26.896Z,0.50
2023-03-15T06:07:25.248Z,0.50
2023-03-15T06:08:25.174Z,0.50
2023-03-15T06:09:26.225Z,0.34
2023-03-15T06:10:26.277Z,0.34
2023-03-15T06:11:26.339Z,0.34
2023-03-15T06:12:26.406Z,0.34
2023-03-15T06:13:26.417Z,0.34
2023-03-15T06:14:26.448Z,0.34
2023-03-15T06:15:26.584Z,0.34
2023-03-15T06:16:25.525Z,0.34
2023-03-15T06:17:26.515Z,0.34
2023-03-15T06:18:26.540Z,0.34
2023-03-15T06:19:26.580Z,0.34
2023-03-15T06:20:26.578Z,0.34
2023-03-15T06:21:26.554Z,0.34
2023-03-15T06:22:26.585Z,0.34
2023-03-15T06:23:26.640Z,0.34
2023-03-15T06:24:25.620Z,0.34
2023-03-15T06:25:26.652Z,0.34
2023-03-15T06:26:26.686Z,0.34
2023-03-15T06:27:26.692Z,0.34
2023-03-15T06:28:26.715Z,0.34
2023-03-15T06:29:26.738Z,0.34
2023-03-15T06:30:26.708Z,0.37
2023-03-15T06:31:26.724Z,0.43
2023-03-15T06:32:26.801Z,0.50
2023-03-15T06:33:26.753Z,0.50
2023-03-15T06:34:26.772Z,0.50
2023-03-15T06:35:25.826Z,0.50
2023-03-15T06:36:26.796Z,0.50
2023-03-15T06:37:35.141Z,0.50
2023-03-15T06:38:26.786Z,0.50
2023-03-15T06:39:26.767Z,0.50
2023-03-15T06:40:26.791Z,0.48
2023-03-15T06:41:26.857Z,0.46
2023-03-15T06:42:26.765Z,0.45
2023-03-15T06:43:26.750Z,0.50
2023-03-15T06:44:26.725Z,0.50
2023-03-15T06:45:25.731Z,0.50
2023-03-15T06:46:26.753Z,0.50
2023-03-15T06:47:25.714Z,0.50
2023-03-15T06:48:26.931Z,0.51
2023-03-15T06:49:26.702Z,0.51
2023-03-15T06:50:29.524Z,0.50
2023-03-15T06:51:26.716Z,0.50
2023-03-15T06:52:25.684Z,0.50
2023-03-15T06:53:26.699Z,0.50
2023-03-15T06:54:26.663Z,0.48
2023-03-15T06:55:25.655Z,0.49
2023-03-15T06:56:26.663Z,0.50
2023-03-15T06:57:25.636Z,0.50
2023-03-15T06:58:26.663Z,0.50
2023-03-15T06:59:26.624Z,0.51
2023-03-15T07:00:26.628Z,0.50
2023-03-15T07:01:26.679Z,0.50
2023-03-15T07:02:26.803Z,0.51
2023-03-15T07:03:26.936Z,0.51
2023-03-15T07:04:26.604Z,0.50
2023-03-15T07:05:26.585Z,0.50
2023-03-15T07:06:25.581Z,0.51
2023-03-15T07:07:26.605Z,0.51
2023-03-15T07:08:25.599Z,0.50
2023-03-15T07:09:26.586Z,0.52
2023-03-15T07:10:26.584Z,0.52
2023-03-15T07:11:25.614Z,0.53
2023-03-15T07:12:25.656Z,0.54
2023-03-15T07:13:26.604Z,0.55
2023-03-15T07:14:26.601Z,0.55
2023-03-15T07:15:26.589Z,0.55
2023-03-15T07:16:26.527Z,0.58
2023-03-15T07:17:25.534Z,0.58
2023-03-15T07:18:26.560Z,0.56
2023-03-15T07:19:26.538Z,0.57
2023-03-15T07:20:25.563Z,0.59
2023-03-15T07:21:26.510Z,0.59
2023-03-15T07:22:25.499Z,0.59
2023-03-15T07:23:26.639Z,0.61
2023-03-15T07:24:26.572Z,0.61
2023-03-15T07:25:25.517Z,0.58
2023-03-15T07:26:25.485Z,0.60
2023-03-15T07:27:26.496Z,0.61
2023-03-15T07:28:26.511Z,0.60
2023-03-15T07:29:25.659Z,0.63
2023-03-15T07:30:28.965Z,0.60
2023-03-15T07:31:38.604Z,0.61
2023-03-15T07:32:26.755Z,0.61
2023-03-15T07:33:26.885Z,0.62
2023-03-15T07:34:27.111Z,0.62
2023-03-15T07:35:26.548Z,0.65
2023-03-15T07:36:26.522Z,0.66
2023-03-15T07:37:26.754Z,0.66
2023-03-15T07:38:26.546Z,0.66
2023-03-15T07:39:26.554Z,0.68
2023-03-15T07:40:26.593Z,0.68
2023-03-15T07:41:26.630Z,0.67
2023-03-15T07:42:26.623Z,0.67
2023-03-15T07:43:26.677Z,0.68
2023-03-15T07:44:26.456Z,0.68
2023-03-15T07:45:26.490Z,0.68
2023-03-15T07:46:26.504Z,0.67
2023-03-15T07:47:25.435Z,0.68
2023-03-15T07:48:25.431Z,0.66
2023-03-15T07:49:25.470Z,0.68
2023-03-15T07:50:26.433Z,0.68
2023-03-15T07:51:26.468Z,0.67
2023-03-15T07:52:25.884Z,0.69
2023-03-15T07:53:26.394Z,0.67
2023-03-15T07:54:27.436Z,0.68
2023-03-15T07:55:26.410Z,0.69
2023-03-15T07:56:26.386Z,0.70
2023-03-15T07:57:27.682Z,0.68
2023-03-15T07:58:26.361Z,0.68
2023-03-15T07:59:26.438Z,0.68
2023-03-15T08:00:26.435Z,0.68
2023-03-15T08:01:26.338Z,0.68
2023-03-15T08:02:26.809Z,0.68
2023-03-15T08:03:25.423Z,0.67
2023-03-15T08:04:26.340Z,0.66
2023-03-15T08:05:27.250Z,0.66
2023-03-15T08:06:26.321Z,0.66
2023-03-15T08:07:26.432Z,0.65
2023-03-15T08:08:26.328Z,0.65
2023-03-15T08:09:26.305Z,0.63
2023-03-15T08:10:26.288Z,0.64
2023-03-15T08:11:26.319Z,0.62
2023-03-15T08:12:26.269Z,0.63
2023-03-15T08:13:26.576Z,0.62
2023-03-15T08:14:26.268Z,0.62
2023-03-15T08:15:26.249Z,0.61
2023-03-15T08:17:25.234Z,0.61
2023-03-15T08:18:26.257Z,0.62
2023-03-15T08:19:26.282Z,0.60
2023-03-15T08:20:28.410Z,0.59
2023-03-15T08:21:26.209Z,0.60
2023-03-15T08:22:26.207Z,0.60
2023-03-15T08:23:26.210Z,0.60
2023-03-15T08:24:26.198Z,0.60
2023-03-15T08:25:26.265Z,0.60
2023-03-15T08:26:26.192Z,0.59
2023-03-15T08:27:26.237Z,0.59
2023-03-15T08:28:25.178Z,0.58
2023-03-15T08:29:26.175Z,0.59
2023-03-15T08:30:26.147Z,0.59
2023-03-15T08:31:25.302Z,0.58
2023-03-15T08:32:26.233Z,0.58
2023-03-15T08:33:25.147Z,0.58
2023-03-15T08:34:26.170Z,0.57
2023-03-15T08:35:26.174Z,0.57
2023-03-15T08:36:26.187Z,0.59
2023-03-15T08:37:25.139Z,0.58
2023-03-15T08:38:25.128Z,0.58
2023-03-15T08:39:26.116Z,0.57
2023-03-15T08:40:26.122Z,0.57
2023-03-15T08:41:26.099Z,0.58
2023-03-15T08:42:25.102Z,0.58
2023-03-15T08:43:26.139Z,0.58
2023-03-15T08:44:26.091Z,0.56
2023-03-15T08:45:26.128Z,0.57
2023-03-15T08:46:26.100Z,0.57
2023-03-15T08:47:25.124Z,0.57
2023-03-15T08:48:26.146Z,0.56
2023-03-15T08:49:26.504Z,0.56
2023-03-15T08:50:26.403Z,0.56
2023-03-15T08:51:26.307Z,0.56
2023-03-15T08:52:26.378Z,0.57
2023-03-15T08:53:26.458Z,0.56
2023-03-15T08:54:26.571Z,0.57
2023-03-15T08:55:26.642Z,0.59
2023-03-15T08:56:26.678Z,0.59
2023-03-15T08:57:26.702Z,0.58
2023-03-15T08:58:26.745Z,0.61
2023-03-15T08:59:31.796Z,0.60
2023-03-15T09:00:26.788Z,0.60
2023-03-15T09:01:26.786Z,0.60
2023-03-15T09:02:27.022Z,0.61
2023-03-15T09:03:25.771Z,0.61
2023-03-15T09:04:26.852Z,0.62
2023-03-15T09:05:25.741Z,0.62
2023-03-15T09:06:26.744Z,0.63
2023-03-15T09:07:26.725Z,0.64
2023-03-15T09:08:25.766Z,0.64
2023-03-15T09:09:26.750Z,0.64
2023-03-15T09:10:26.722Z,0.63
2023-03-15T09:11:26.714Z,0.67
2023-03-15T09:12:26.706Z,0.66
2023-03-15T09:13:26.753Z,0.65
2023-03-15T09:14:26.764Z,0.66
2023-03-15T09:15:25.785Z,0.67
2023-03-15T09:16:25.797Z,0.65
2023-03-15T09:17:26.680Z,0.64
2023-03-15T09:18:26.672Z,0.64
2023-03-15T09:19:26.665Z,0.65
2023-03-15T09:20:26.665Z,0.65
2023-03-15T09:21:26.646Z,0.66
2023-03-15T09:23:26.673Z,0.63
2023-03-15T09:24:26.660Z,0.64
2023-03-15T09:25:26.680Z,0.65
2023-03-15T09:26:26.682Z,0.66
2023-03-15T09:27:26.672Z,0.66
2023-03-15T09:28:26.613Z,0.66
2023-03-15T09:29:27.486Z,0.67
2023-03-15T09:31:44.798Z,0.50
2023-03-15T09:32:45.999Z,0.50
2023-03-15T09:33:45.932Z,0.50
2023-03-15T09:34:45.756Z,0.50
2023-03-15T09:35:45.784Z,0.50
2023-03-15T09:36:47.702Z,0.50
2023-03-15T09:37:45.782Z,0.50
2023-03-15T09:38:45.751Z,0.50
2023-03-15T09:39:45.709Z,0.51
2023-03-15T09:40:45.796Z,0.50
2023-03-15T09:41:45.676Z,0.51
2023-03-15T09:42:44.675Z,0.50
2023-03-15T09:43:44.671Z,0.52
2023-03-15T09:44:45.689Z,0.51
2023-03-15T09:45:46.103Z,0.52
2023-03-15T09:46:45.707Z,0.51
2023-03-15T09:47:45.707Z,0.51
2023-03-15T09:48:45.632Z,0.51
2023-03-15T09:49:44.634Z,0.53
2023-03-15T09:50:45.997Z,0.53
2023-03-15T09:51:45.623Z,0.52
2023-03-15T09:52:45.619Z,0.52
2023-03-15T09:53:45.621Z,0.51
2023-03-15T09:54:45.606Z,0.51
2023-03-15T09:55:46.460Z,0.52
2023-03-15T09:56:45.741Z,0.51
2023-03-15T09:57:45.574Z,0.52
2023-03-15T09:58:45.587Z,0.52
2023-03-15T09:59:45.601Z,0.52
2023-03-15T10:00:45.586Z,0.52
2023-03-15T10:01:45.612Z,0.50
2023-03-15T10:02:44.554Z,0.52
2023-03-15T10:03:45.671Z,0.51
2023-03-15T10:04:45.569Z,0.52
2023-03-15T10:05:44.532Z,0.52
2023-03-15T10:06:45.529Z,0.53
2023-03-15T10:07:45.509Z,0.53
2023-03-15T10:08:45.514Z,0.52
2023-03-15T10:09:45.527Z,0.52
2023-03-15T10:10:44.518Z,0.53
2023-03-15T10:11:45.641Z,0.53
2023-03-15T10:12:45.543Z,0.52
2023-03-15T10:13:44.564Z,0.53
2023-03-15T10:14:45.582Z,0.52
2023-03-15T10:15:44.659Z,0.52
2023-03-15T10:16:45.739Z,0.52
2023-03-15T10:17:45.683Z,0.52
2023-03-15T10:18:45.720Z,0.52
2023-03-15T10:19:45.835Z,0.52
2023-03-15T10:20:45.832Z,0.52
2023-03-15T10:21:46.050Z,0.51
2023-03-15T10:22:45.909Z,0.52
2023-03-15T10:23:45.941Z,0.52
2023-03-15T10:24:45.953Z,0.53
2023-03-15T10:25:46.079Z,0.53
2023-03-15T10:27:45.075Z,0.52
2023-03-15T10:28:46.232Z,0.52
2023-03-15T10:29:46.094Z,0.51
2023-03-15T10:30:46.190Z,0.52
2023-03-15T10:31:46.243Z,0.52
2023-03-15T10:32:45.243Z,0.51
2023-03-15T10:33:46.287Z,0.53
2023-03-15T10:34:47.687Z,0.52
2023-03-15T10:35:46.437Z,0.52
2023-03-15T10:36:46.467Z,0.52
2023-03-15T10:37:46.353Z,0.51
2023-03-15T10:38:45.502Z,0.52
2023-03-15T10:39:46.411Z,0.52
2023-03-15T10:40:46.461Z,0.50
2023-03-15T10:41:46.449Z,0.52
2023-03-15T10:42:46.503Z,0.52
2023-03-15T10:43:46.518Z,0.51
2023-03-15T10:44:46.568Z,0.52
2023-03-15T10:45:45.584Z,0.52
2023-03-15T10:46:46.708Z,0.53
2023-03-15T10:47:57.532Z,0.51
2023-03-15T10:48:46.664Z,0.51
2023-03-15T10:49:46.660Z,0.52
2023-03-15T10:50:47.026Z,0.52
2023-03-15T10:51:46.752Z,0.52
2023-03-15T10:52:46.663Z,0.51
2023-03-15T10:53:46.620Z,0.52
2023-03-15T10:54:50.086Z,0.51
2023-03-15T10:55:46.644Z,0.51
2023-03-15T10:56:46.653Z,0.52
2023-03-15T10:57:46.584Z,0.52
2023-03-15T10:58:47.982Z,0.54
2023-03-15T10:59:46.804Z,0.51
2023-03-15T11:00:46.849Z,0.52
2023-03-15T11:01:46.900Z,0.53
2023-03-15T11:02:46.027Z,0.55
2023-03-15T11:03:47.121Z,0.56
2023-03-15T11:04:47.181Z,0.58
2023-03-15T11:07:05.154Z,0.50
2023-03-15T11:08:06.123Z,0.50
2023-03-15T11:09:06.243Z,0.50
2023-03-15T11:10:05.104Z,0.50
2023-03-15T11:11:06.306Z,0.50
2023-03-15T11:12:07.812Z,0.50
2023-03-15T11:23:25.761Z,0.51
2023-03-15T11:29:37.671Z,0.53
2023-03-15T11:31:44.058Z,0.50
2023-03-15T11:32:45.005Z,0.50
2023-03-15T11:33:44.988Z,0.50
2023-03-15T11:34:45.128Z,0.50
2023-03-15T11:35:44.472Z,0.50
2023-03-15T11:36:45.333Z,0.50
2023-03-15T11:38:03.193Z,0.52
2023-03-15T11:41:10.717Z,0.50
2023-03-15T11:43:29.930Z,0.50
2023-03-15T11:44:29.941Z,0.50
2023-03-15T11:45:30.924Z,0.50
2023-03-15T11:46:29.908Z,0.50
2023-03-15T11:47:33.601Z,0.50
2023-03-15T11:48:30.864Z,0.50
2023-03-15T11:50:49.013Z,0.50
2023-03-15T11:51:49.988Z,0.50
2023-03-15T11:52:49.988Z,0.50
2023-03-15T11:53:50.594Z,0.50
2023-03-15T11:54:48.959Z,0.50
2023-03-15T11:56:01.226Z,0.50
2023-03-15T11:56:50.311Z,0.50
2023-03-15T12:16:43.297Z,0.55
2023-03-15T12:17:46.560Z,0.50
2023-03-15T12:18:47.429Z,0.50
2023-03-15T12:19:46.678Z,0.50
2023-03-15T12:27:46.433Z,0.50
2023-03-15T12:28:44.965Z,0.50
2023-03-15T12:29:45.835Z,0.50
2023-03-15T12:30:43.966Z,0.50
2023-03-15T12:31:45.006Z,0.50
2023-03-15T12:32:45.091Z,0.50
2023-03-15T12:33:45.082Z,0.36
2023-03-15T12:34:44.119Z,0.44
2023-03-15T12:35:44.234Z,0.52
2023-03-15T12:36:45.260Z,0.54
2023-03-15T12:37:45.254Z,0.73
2023-03-15T12:38:44.311Z,0.90
2023-03-15T12:39:45.365Z,1.02
2023-03-15T12:40:45.383Z,1.35
2023-03-15T12:41:45.380Z,1.43
2023-03-15T12:42:45.400Z,1.99
2023-03-15T12:43:45.453Z,1.70
2023-03-15T12:44:45.505Z,1.94
2023-03-15T12:45:45.649Z,2.10
2023-03-15T12:46:45.508Z,2.40
2023-03-15T12:47:45.519Z,3.00
2023-03-15T12:48:44.513Z,3.21
2023-03-15T12:49:45.552Z,3.15
2023-03-15T12:50:45.630Z,3.72
2023-03-15T12:51:45.761Z,4.30
2023-03-15T12:52:45.708Z,4.19
2023-03-15T12:53:45.770Z,4.41
2023-03-15T12:54:45.856Z,4.51
2023-03-15T12:55:45.994Z,4.81
2023-03-15T12:56:45.911Z,5.17
2023-03-15T12:57:45.940Z,5.30
2023-03-15T12:58:45.978Z,5.46
2023-03-15T12:59:46.001Z,5.58
2023-03-15T13:00:46.077Z,5.86
2023-03-15T13:01:46.182Z,6.18
2023-03-15T13:02:46.291Z,6.22
2023-03-15T13:03:46.235Z,6.33
2023-03-15T13:04:46.266Z,6.34
2023-03-15T13:05:49.260Z,6.61
2023-03-15T13:06:46.341Z,6.63
2023-03-15T13:07:51.640Z,6.69
2023-03-15T13:08:46.310Z,6.64
2023-03-15T13:09:46.321Z,6.77
2023-03-15T13:10:46.308Z,6.90
2023-03-15T13:11:46.302Z,7.16
2023-03-15T13:12:45.305Z,7.35
2023-03-15T13:13:45.285Z,7.45
2023-03-15T13:14:46.286Z,7.73
2023-03-15T13:15:46.364Z,8.03
2023-03-15T13:16:46.272Z,8.08
2023-03-15T13:17:46.248Z,8.22
2023-03-15T13:18:46.241Z,8.06
2023-03-15T13:19:46.256Z,8.16
2023-03-15T13:20:45.253Z,8.38
2023-03-15T13:21:46.267Z,8.36
2023-03-15T13:22:54.994Z,8.56
2023-03-15T13:23:46.224Z,8.58
2023-03-15T13:24:46.214Z,8.57
2023-03-15T13:25:46.204Z,8.61
2023-03-15T13:26:46.197Z,8.70
2023-03-15T13:27:46.208Z,8.77
2023-03-15T13:28:46.216Z,8.78
2023-03-15T13:29:46.185Z,8.76
2023-03-15T13:30:46.195Z,8.76
2023-03-15T13:31:45.260Z,8.78
2023-03-15T13:32:46.190Z,8.84
2023-03-15T13:33:46.208Z,8.98
2023-03-15T13:34:45.134Z,9.14
2023-03-15T13:35:45.196Z,9.05
2023-03-15T13:36:46.514Z,8.97
2023-03-15T13:37:46.240Z,8.85
2023-03-15T13:38:45.262Z,8.62
2023-03-15T13:39:46.301Z,8.69
2023-03-15T13:40:46.304Z,8.83
2023-03-15T13:41:47.964Z,8.84
2023-03-15T13:42:46.466Z,9.18
2023-03-15T13:43:46.521Z,8.85
2023-03-15T13:44:46.556Z,8.64
2023-03-15T13:45:46.577Z,8.72
2023-03-15T13:46:46.657Z,8.88
2023-03-15T13:47:45.637Z,8.76
2023-03-15T13:48:45.696Z,8.86
2023-03-15T13:49:46.723Z,8.64
2023-03-15T13:50:46.777Z,8.79
2023-03-15T13:51:46.839Z,8.86
2023-03-15T13:52:46.863Z,8.78
2023-03-15T13:53:50.193Z,8.63
2023-03-15T13:54:46.865Z,8.66
2023-03-15T13:55:46.862Z,8.69
2023-03-15T13:56:49.641Z,8.78
2023-03-15T13:57:46.863Z,8.66
2023-03-15T13:58:46.869Z,8.66
2023-03-15T13:59:45.848Z,8.67
2023-03-15T14:00:46.873Z,8.73
2023-03-15T14:01:46.928Z,8.70
2023-03-15T14:02:46.949Z,8.83
2023-03-15T14:03:46.836Z,9.07
2023-03-15T14:04:46.824Z,8.86
2023-03-15T14:05:45.814Z,8.77
2023-03-15T14:06:46.825Z,8.68
2023-03-15T14:07:46.824Z,8.79
2023-03-15T14:08:46.807Z,8.66
2023-03-15T14:09:46.812Z,8.66
2023-03-15T14:10:45.800Z,8.76
2023-03-15T14:11:46.776Z,8.81
2023-03-15T14:12:46.775Z,8.71
2023-03-15T14:13:46.784Z,8.73
2023-03-15T14:14:45.767Z,8.62
2023-03-15T14:15:45.754Z,8.65
2023-03-15T14:17:03.138Z,8.61
2023-03-15T14:17:46.744Z,8.62
2023-03-15T14:18:46.732Z,8.63
2023-03-15T14:19:46.736Z,8.64
2023-03-15T14:20:45.732Z,8.72
2023-03-15T14:21:46.722Z,8.79
2023-03-15T14:22:46.786Z,8.73
2023-03-15T14:23:46.724Z,8.55
2023-03-15T14:24:46.713Z,8.61
2023-03-15T14:25:46.697Z,8.51
2023-03-15T14:26:46.684Z,8.40
2023-03-15T14:27:45.680Z,8.69
2023-03-15T14:28:46.680Z,8.40
2023-03-15T14:29:46.666Z,8.05
2023-03-15T14:30:45.667Z,7.99
2023-03-15T14:31:46.805Z,8.23
2023-03-15T14:32:46.754Z,8.62
2023-03-15T14:33:45.689Z,8.39
2023-03-15T14:34:46.637Z,8.39
2023-03-15T14:35:45.676Z,8.41
2023-03-15T14:36:45.617Z,8.29
2023-03-15T14:37:45.622Z,8.31
2023-03-15T14:38:46.631Z,8.28
2023-03-15T14:39:46.630Z,8.31
2023-03-15T14:40:46.594Z,8.37
2023-03-15T14:41:46.589Z,8.30
2023-03-15T14:42:46.596Z,8.43
2023-03-15T14:43:46.626Z,7.86
2023-03-15T14:44:46.601Z,8.25
2023-03-15T14:45:45.630Z,8.22
2023-03-15T14:46:46.572Z,8.36
2023-03-15T14:47:56.174Z,8.11
2023-03-15T14:48:46.599Z,8.12
2023-03-15T14:49:46.559Z,8.17
2023-03-15T14:50:46.609Z,8.16
2023-03-15T14:51:45.574Z,8.01
2023-03-15T14:52:45.559Z,8.02
2023-03-15T14:53:46.538Z,8.15
2023-03-15T14:54:45.531Z,7.86
2023-03-15T14:55:46.531Z,8.13
2023-03-15T14:56:46.541Z,7.86
2023-03-15T14:57:46.518Z,7.77
2023-03-15T14:58:46.498Z,7.76
2023-03-15T14:59:46.540Z,7.65
2023-03-15T15:00:46.518Z,7.58
2023-03-15T15:01:46.949Z,7.14
2023-03-15T15:02:45.557Z,7.77
2023-03-15T15:03:46.486Z,7.72
2023-03-15T15:04:46.489Z,7.64
2023-03-15T15:05:46.471Z,7.86
2023-03-15T15:06:46.464Z,7.86
2023-03-15T15:07:46.436Z,7.62
2023-03-15T15:08:46.439Z,7.70
2023-03-15T15:09:46.478Z,7.76
2023-03-15T15:10:46.408Z,7.54
2023-03-15T15:11:46.482Z,7.48
2023-03-15T15:12:48.596Z,7.62
2023-03-15T15:13:46.399Z,7.63
2023-03-15T15:14:45.393Z,7.61
2023-03-15T15:15:55.067Z,7.65
2023-03-15T15:16:46.471Z,7.64
2023-03-15T15:17:46.382Z,7.69
2023-03-15T15:18:46.395Z,7.68
2023-03-15T15:19:47.128Z,7.65
2023-03-15T15:20:46.379Z,7.78
2023-03-15T15:21:45.368Z,7.58
2023-03-15T15:22:46.366Z,7.67
2023-03-15T15:23:57.418Z,7.74
2023-03-15T15:24:46.345Z,7.76
2023-03-15T15:25:46.925Z,7.80
2023-03-15T15:26:46.361Z,7.79
2023-03-15T15:27:46.365Z,7.76
2023-03-15T15:28:46.324Z,7.78
2023-03-15T15:29:46.404Z,7.62
2023-03-15T15:30:46.351Z,7.64
2023-03-15T15:31:46.384Z,7.58
2023-03-15T15:32:45.345Z,7.64
2023-03-15T15:33:46.257Z,7.65
2023-03-15T15:34:46.272Z,7.49
2023-03-15T15:35:46.307Z,7.58
2023-03-15T15:36:46.331Z,7.47
2023-03-15T15:37:45.241Z,7.62
2023-03-15T15:38:45.246Z,7.42
2023-03-15T15:39:46.248Z,7.49
2023-03-15T15:40:46.259Z,7.47
2023-03-15T15:41:46.283Z,7.60
2023-03-15T15:42:45.305Z,7.56
2023-03-15T15:43:46.350Z,7.37
2023-03-15T15:44:46.385Z,7.38
2023-03-15T15:45:46.446Z,7.28
2023-03-15T15:46:46.503Z,7.30
2023-03-15T15:47:46.507Z,7.39
2023-03-15T15:48:46.589Z,7.12
2023-03-15T15:49:46.626Z,7.25
2023-03-15T15:50:46.712Z,7.25
2023-03-15T15:51:45.859Z,7.38
2023-03-15T15:52:48.537Z,7.31
2023-03-15T15:53:45.796Z,7.41
2023-03-15T15:54:45.777Z,7.35
2023-03-15T15:55:46.752Z,7.33
2023-03-15T15:56:46.751Z,7.22
2023-03-15T15:57:46.755Z,7.30
2023-03-15T15:58:46.760Z,7.12
2023-03-15T15:59:46.784Z,7.17
2023-03-15T16:00:45.777Z,7.20
2023-03-15T16:01:59.516Z,7.08
2023-03-15T16:02:46.783Z,7.10
2023-03-15T16:03:46.726Z,7.13
2023-03-15T16:04:46.767Z,7.16
2023-03-15T16:05:46.732Z,7.09
2023-03-15T16:06:45.697Z,7.21
2023-03-15T16:07:46.753Z,7.16
2023-03-15T16:08:46.703Z,7.23
2023-03-15T16:09:46.711Z,7.24
2023-03-15T16:10:46.682Z,7.00
2023-03-15T16:11:46.668Z,7.09
2023-03-15T16:12:46.672Z,7.03
2023-03-15T16:13:46.673Z,7.13
2023-03-15T16:14:46.647Z,7.05
2023-03-15T16:15:46.729Z,7.01
2023-03-15T16:16:46.652Z,6.98
2023-03-15T16:17:46.632Z,6.91
2023-03-15T16:18:46.669Z,6.83
2023-03-15T16:19:46.614Z,6.96
2023-03-15T16:20:46.607Z,6.99
2023-03-15T16:21:45.616Z,6.85
2023-03-15T16:22:45.629Z,6.88
2023-03-15T16:23:45.600Z,6.84
2023-03-15T16:24:46.641Z,6.88
2023-03-15T16:25:45.597Z,6.77
2023-03-15T16:26:46.579Z,6.74
2023-03-15T16:27:46.578Z,6.74
2023-03-15T16:28:46.561Z,6.80
2023-03-15T16:29:46.564Z,6.81
